createdAt,value
2023-03-21T04:14:47.495Z,94.74
2023-03-21T04:17:36.984Z,91.74
2023-03-21T04:46:18.033Z,90.69
2023-03-21T04:58:01.226Z,87.71
2023-03-21T04:59:29.966Z,88.74
2023-03-21T05:17:38.724Z,87.39
2023-03-21T05:24:05.375Z,86.29
2023-03-21T05:25:38.052Z,86.90
2023-03-21T05:27:05.788Z,87.26
2023-03-21T05:28:44.879Z,85.82
2023-03-21T05:32:16.358Z,85.67
2023-03-21T05:37:48.236Z,83.86
2023-03-21T05:39:00.346Z,83.27
2023-03-21T05:40:07.932Z,83.06
2023-03-21T05:41:20.248Z,83.18
2023-03-21T05:42:29.201Z,82.94
2023-03-21T05:43:40.353Z,82.34
2023-03-21T05:44:46.731Z,81.67
2023-03-21T05:45:49.938Z,80.73
2023-03-21T05:46:55.715Z,80.30
2023-03-21T05:48:04.234Z,80.29
2023-03-21T05:49:15.534Z,79.31
2023-03-21T05:50:21.729Z,78.93
2023-03-21T05:51:42.271Z,77.81
2023-03-21T05:52:48.606Z,77.22
2023-03-21T05:54:22.557Z,75.40
2023-03-21T06:06:30.741Z,74.43
2023-03-21T06:08:26.304Z,73.74
2023-03-21T06:14:29.509Z,72.70
2023-03-21T06:16:18.480Z,72.79
2023-03-21T06:32:55.093Z,70.51
2023-03-21T06:35:51.268Z,71.41
2023-03-21T06:37:30.273Z,74.14
2023-03-21T06:44:32.491Z,71.15
2023-03-21T06:45:48.766Z,70.52
2023-03-21T06:47:00.284Z,70.95
2023-03-21T06:48:40.926Z,70.80
2023-03-21T06:50:54.821Z,71.31
2023-03-21T06:53:53.860Z,71.90
2023-03-21T06:59:38.706Z,73.51
2023-03-21T07:40:29.613Z,50.18
2023-03-21T07:42:01.417Z,48.36
2023-03-21T07:43:50.669Z,48.76
2023-03-21T07:45:34.059Z,50.39
2023-03-21T07:46:54.701Z,50.88
2023-03-21T07:52:51.336Z,55.30
2023-03-21T07:58:42.973Z,58.93
2023-03-21T08:01:49.026Z,59.82
2023-03-21T08:04:45.000Z,62.60
2023-03-21T08:13:19.306Z,66.81
2023-03-21T08:15:04.021Z,71.61
2023-03-21T08:16:42.002Z,79.17
2023-03-21T08:17:56.681Z,79.37
2023-03-21T08:19:09.894Z,79.72
2023-03-21T08:21:11.793Z,78.81
2023-03-21T08:25:34.862Z,87.50
2023-03-21T08:26:46.488Z,89.22
2023-03-21T08:28:15.729Z,91.28
2023-03-21T08:31:36.567Z,85.56
2023-03-21T08:34:13.781Z,84.76
2023-03-21T08:35:23.823Z,85.85
2023-03-21T08:37:00.144Z,87.18
2023-03-21T08:38:26.028Z,86.01
2023-03-21T08:39:46.040Z,85.93
2023-03-21T08:41:12.510Z,87.34
2023-03-21T08:42:53.850Z,83.80
2023-03-21T08:44:22.837Z,82.56
2023-03-21T08:45:40.960Z,81.93
2023-03-21T08:46:45.206Z,83.65
2023-03-21T08:47:57.403Z,81.35
2023-03-21T08:49:03.126Z,81.90
2023-03-21T08:50:20.246Z,84.80
2023-03-21T08:51:36.711Z,88.23
2023-03-21T08:53:00.393Z,89.20
2023-03-21T08:54:07.842Z,92.46
2023-03-21T08:55:46.707Z,93.98
2023-03-21T08:57:01.356Z,94.76
2023-03-21T08:58:11.129Z,92.76
2023-03-21T08:59:15.615Z,92.89
2023-03-21T09:00:22.202Z,93.08
2023-03-21T09:01:25.019Z,95.12
2023-03-21T09:02:27.904Z,95.77
2023-03-21T09:03:32.377Z,92.98
2023-03-21T09:04:34.966Z,91.29
2023-03-21T09:05:37.379Z,92.90
2023-03-21T09:12:49.171Z,93.96
2023-03-21T09:14:44.679Z,93.74
2023-03-21T09:17:01.913Z,94.46
2023-03-21T09:25:18.863Z,95.86
2023-03-21T09:36:50.073Z,96.11
2023-03-21T10:33:59.213Z,90.72
2023-03-21T10:35:46.638Z,87.88
2023-03-21T10:38:17.482Z,89.68
2023-03-21T10:39:58.496Z,87.60
2023-03-21T10:54:26.186Z,84.15
2023-03-21T10:58:49.407Z,86.58
2023-03-21T11:00:47.851Z,84.79
2023-03-21T11:21:56.685Z,86.57
2023-03-21T11:26:06.147Z,89.71
2023-03-21T11:28:58.861Z,89.01
2023-03-21T11:30:32.506Z,88.84
2023-03-21T11:37:23.088Z,86.12
2023-03-21T11:42:53.460Z,82.09
2023-03-21T11:52:45.305Z,83.51
2023-03-21T11:56:42.036Z,83.13
2023-03-21T12:03:10.693Z,79.03
2023-03-21T12:20:28.529Z,78.37
2023-03-21T12:21:55.059Z,77.65
2023-03-21T12:23:33.483Z,77.86
2023-03-21T12:24:57.603Z,77.89
2023-03-21T12:26:27.419Z,76.40
2023-03-21T12:27:44.914Z,75.42
2023-03-21T12:28:59.903Z,76.48
2023-03-21T12:30:26.151Z,76.72
2023-03-21T12:31:49.398Z,75.09
2023-03-21T12:33:05.375Z,74.34
2023-03-21T12:34:34.943Z,74.77
2023-03-21T12:35:50.813Z,75.40
2023-03-21T12:37:09.529Z,74.20
2023-03-21T12:38:33.108Z,72.48
2023-03-21T12:39:43.272Z,72.24
2023-03-21T12:41:02.286Z,74.49
2023-03-21T12:42:14.954Z,69.89
2023-03-21T12:43:42.300Z,69.34
2023-03-21T12:45:15.803Z,68.20
2023-03-21T12:46:25.052Z,67.12
2023-03-21T12:47:34.896Z,66.94
2023-03-21T12:48:44.326Z,66.83
2023-03-21T12:50:03.798Z,66.35
2023-03-21T12:51:11.997Z,66.02
2023-03-21T12:52:18.995Z,65.08
2023-03-21T12:53:36.468Z,65.13
2023-03-21T12:54:41.930Z,63.88
2023-03-21T12:55:45.984Z,62.95
2023-03-21T12:56:57.520Z,62.23
2023-03-21T12:58:18.443Z,61.48
2023-03-21T12:59:26.701Z,60.97
2023-03-21T13:00:56.466Z,59.59
2023-03-21T13:02:06.033Z,58.94
2023-03-21T13:03:13.501Z,59.29
2023-03-21T13:04:42.492Z,58.98
2023-03-21T13:06:07.424Z,58.62
2023-03-21T13:07:15.071Z,58.82
2023-03-21T13:08:29.016Z,58.73
2023-03-21T13:09:38.348Z,58.85
2023-03-21T13:10:44.594Z,59.41
2023-03-21T13:11:48.557Z,58.90
2023-03-21T13:12:56.675Z,59.30
2023-03-21T13:14:20.855Z,58.78
2023-03-21T13:15:29.164Z,59.19
2023-03-21T13:16:48.001Z,58.91
2023-03-21T13:17:57.769Z,58.36
2023-03-21T13:19:11.652Z,58.94
2023-03-21T13:20:25.784Z,58.93
2023-03-21T13:21:52.446Z,59.08
2023-03-21T13:22:54.334Z,60.04
2023-03-21T13:24:00.466Z,59.82
2023-03-21T13:25:25.724Z,60.07
2023-03-21T13:26:41.272Z,60.65
2023-03-21T13:27:47.288Z,60.75
2023-03-21T13:28:49.270Z,60.17
2023-03-21T13:30:01.081Z,60.08
2023-03-21T13:31:18.998Z,60.13
2023-03-21T13:32:31.519Z,60.02
2023-03-21T13:33:34.726Z,60.22
2023-03-21T13:34:38.922Z,60.96
2023-03-21T13:35:43.717Z,59.41
2023-03-21T13:36:48.379Z,59.56
2023-03-21T13:37:56.654Z,59.36
2023-03-21T13:39:05.636Z,60.07
2023-03-21T13:40:24.748Z,59.23
2023-03-21T13:41:32.355Z,59.08
2023-03-21T13:42:34.597Z,58.77
2023-03-21T13:44:06.755Z,58.92
2023-03-21T13:45:11.637Z,58.73
2023-03-21T13:46:15.464Z,60.19
2023-03-21T13:47:39.920Z,60.46
2023-03-21T13:48:58.917Z,59.57
2023-03-21T13:50:20.353Z,59.10
2023-03-21T13:51:43.257Z,58.38
2023-03-21T13:53:18.659Z,58.09
2023-03-21T13:54:29.770Z,57.84
2023-03-21T13:55:41.659Z,56.98
2023-03-21T13:56:52.589Z,56.73
2023-03-21T13:57:54.548Z,55.73
2023-03-21T13:59:04.141Z,55.44
2023-03-21T14:00:19.055Z,55.01
2023-03-21T14:01:54.754Z,56.11
2023-03-21T14:03:05.719Z,55.31
2023-03-21T14:04:17.682Z,54.50
2023-03-21T14:05:22.404Z,54.50
2023-03-21T14:06:30.644Z,55.02
2023-03-21T14:07:45.042Z,55.04
2023-03-21T14:08:49.133Z,54.73
2023-03-21T14:09:54.306Z,54.39
2023-03-21T14:10:59.782Z,54.80
2023-03-21T14:12:07.528Z,54.68
2023-03-21T14:13:16.992Z,54.78
2023-03-21T14:14:21.961Z,54.36
2023-03-21T14:15:40.953Z,54.12
2023-03-21T14:17:14.603Z,54.82
2023-03-21T14:18:35.031Z,54.89
2023-03-21T14:20:20.590Z,54.42
2023-03-21T14:22:24.101Z,54.89
2023-03-21T14:23:49.889Z,54.77
2023-03-21T14:25:16.065Z,54.47
2023-03-21T14:26:42.246Z,54.63
2023-03-21T14:35:14.289Z,55.44
2023-03-21T14:36:58.312Z,54.40
2023-03-21T14:40:36.731Z,54.19
2023-03-21T14:42:37.969Z,54.68
2023-03-21T14:47:38.891Z,52.92
2023-03-21T14:49:21.593Z,51.92
2023-03-21T14:50:51.868Z,51.50
2023-03-21T14:52:43.961Z,50.84
2023-03-21T14:55:17.193Z,50.76
2023-03-21T15:04:10.621Z,50.35
2023-03-21T15:28:54.169Z,47.13
2023-03-21T15:30:30.239Z,46.83
2023-03-21T15:31:41.465Z,46.97
2023-03-21T15:33:13.456Z,45.94
2023-03-21T15:59:52.134Z,46.82
2023-03-21T16:19:04.802Z,46.23
2023-03-21T16:28:35.073Z,46.49
2023-03-21T16:57:57.455Z,48.51
2023-03-21T18:01:18.372Z,59.80
